Time;durP1;ratioP1;P1;durP2;ratioP2;P2;SDS_P1;SDS_P2;PMS_P1;PMS_P2;Temp;Humidity;BMP_temperature;BMP_pressure;BME280_temperature;BME280_humidity;BME280_pressure;Samples;Min_cycle;Max_cycle;Signal;HPM_P1;HPM_P2
2022/01/20 00:02:03;;;;;;;10.70;6.28;;;;;;;-2.69;82.01;98796.47;5034558;28;20030;-59
2022/01/20 00:04:44;;;;;;;8.32;5.30;;;;;;;-2.55;82.72;98800.91;5057852;28;20306;-59
2022/01/20 00:26:11;;;;;;;7.45;5.70;;;;;;;-2.57;82.18;98778.06;5044084;28;20044;-60
2022/01/20 00:28:42;;;;;;;8.50;5.53;;;;;;;-2.57;82.21;98777.22;5051672;28;20056;-60
2022/01/20 00:33:54;;;;;;;9.88;5.78;;;;;;;-2.68;82.46;98766.91;5043540;28;20234;-60
2022/01/20 00:39:04;;;;;;;9.15;5.38;;;;;;;-2.69;82.99;98781.28;5051091;28;20036;-60
2022/01/20 00:41:30;;;;;;;8.10;4.93;;;;;;;-2.57;82.88;98774.69;5043139;28;20052;-60
2022/01/20 00:43:56;;;;;;;8.68;5.35;;;;;;;-2.55;82.83;98762.91;5043562;28;20025;-59
2022/01/20 00:46:21;;;;;;;6.25;4.43;;;;;;;-2.52;81.92;98762.94;5042859;28;20062;-59
2022/01/20 00:48:47;;;;;;;9.25;5.35;;;;;;;-2.54;82.36;98765.44;5047671;28;20025;-59
2022/01/20 00:51:13;;;;;;;6.65;5.18;;;;;;;-2.53;83.02;98762.09;5041468;28;20037;-60
2022/01/20 00:53:43;;;;;;;8.40;4.90;;;;;;;-2.77;82.33;98739.75;5053538;28;20029;-61
2022/01/20 00:56:11;;;;;;;6.35;5.13;;;;;;;-2.86;83.22;98752.28;5047851;28;20033;-61
2022/01/20 00:58:37;;;;;;;7.63;4.78;;;;;;;-2.65;82.60;98745.03;5045708;28;20360;-63
2022/01/20 01:01:03;;;;;;;8.52;4.95;;;;;;;-2.64;82.14;98740.78;5056822;28;20029;-59
2022/01/20 01:03:28;;;;;;;6.75;4.60;;;;;;;-2.45;81.63;98739.41;5051428;28;20033;-59
2022/01/20 01:06:10;;;;;;;7.40;5.07;;;;;;;-2.58;82.31;98729.91;5046322;28;20359;-60
2022/01/20 01:08:36;;;;;;;6.45;4.55;;;;;;;-2.72;83.21;98719.53;5050990;28;20051;-59
2022/01/20 01:11:01;;;;;;;8.25;4.97;;;;;;;-2.72;83.64;98724.59;5045599;28;20033;-59
2022/01/20 01:13:28;;;;;;;6.53;5.10;;;;;;;-2.64;83.63;98723.94;5035441;28;20078;-59
2022/01/20 01:15:54;;;;;;;7.50;4.88;;;;;;;-2.77;83.64;98711.88;5035747;28;20446;-60
2022/01/20 01:23:36;;;;;;;6.35;5.00;;;;;;;-2.57;83.68;98735.00;5053425;28;20037;-60
2022/01/20 01:26:06;;;;;;;;;;;;;;;-2.64;83.38;98731.53;5048096;28;20096;-60
2022/01/20 01:28:33;;;;;;;8.68;5.30;;;;;;;-2.57;82.84;98714.72;5057335;28;19905;-60
2022/01/20 01:33:36;;;;;;;8.48;5.68;;;;;;;-2.56;82.91;98718.13;5047225;28;20044;-60
2022/01/20 01:36:04;;;;;;;6.75;5.05;;;;;;;-2.52;82.54;98708.06;5046372;28;20041;-61
2022/01/20 01:38:36;;;;;;;8.52;5.57;;;;;;;-2.43;82.85;98702.25;5046522;28;20071;-59
2022/01/20 01:41:13;;;;;;;;;;;;;;;-2.49;82.29;98707.25;5046725;28;20061;-60
2022/01/20 01:43:42;;;;;;;7.22;4.97;;;;;;;-2.92;82.02;98638.16;5050924;28;19912;-60
2022/01/20 01:46:09;;;;;;;6.45;4.32;;;;;;;-2.55;82.99;98687.72;5054969;28;20310;-61
2022/01/20 01:48:35;;;;;;;8.70;5.40;;;;;;;-2.53;83.51;98705.50;5048485;28;20032;-60
2022/01/20 01:51:01;;;;;;;7.22;4.82;;;;;;;-2.48;83.21;98712.34;5045656;28;20037;-60
2022/01/20 01:53:28;;;;;;;7.32;4.80;;;;;;;-2.42;82.92;98706.50;5044946;28;20064;-60
2022/01/20 01:55:54;;;;;;;8.15;4.78;;;;;;;-2.38;82.89;98710.78;5045658;28;20037;-60
2022/01/20 01:58:20;;;;;;;9.75;5.57;;;;;;;-2.41;83.32;98707.34;5030845;28;20041;-60
2022/01/20 02:00:46;;;;;;;10.15;5.22;;;;;;;-2.49;83.67;98717.38;5042188;28;20203;-60
2022/01/20 02:03:13;;;;;;;9.07;5.57;;;;;;;-2.38;83.78;98700.66;5040961;28;20025;-60
2022/01/20 02:05:56;;;;;;;8.32;5.35;;;;;;;-2.32;83.37;98704.97;5038350;28;20021;-60
2022/01/20 02:08:35;;;;;;;6.70;5.03;;;;;;;-2.35;82.46;98690.56;5045452;28;20033;-60
2022/01/20 02:19:16;;;;;;;8.43;5.85;;;;;;;-2.32;83.19;98677.91;5044099;28;20033;-59
2022/01/20 02:22:04;;;;;;;8.98;5.28;;;;;;;-2.66;82.53;98636.88;5043667;28;20028;-58
2022/01/20 02:24:31;;;;;;;8.30;5.13;;;;;;;-2.24;82.52;98692.38;5044305;28;20052;-59
2022/01/20 02:26:56;;;;;;;9.30;5.75;;;;;;;-2.36;82.98;98676.16;5048467;28;20033;-60
2022/01/20 02:29:23;;;;;;;7.85;5.30;;;;;;;-2.67;84.14;98665.56;5046988;28;20037;-60
2022/01/20 02:31:56;;;;;;;8.98;5.22;;;;;;;-2.57;84.37;98648.00;5056117;28;20034;-60
2022/01/20 02:34:24;;;;;;;7.15;4.90;;;;;;;-2.44;84.05;98657.44;5045103;28;20021;-60
2022/01/20 02:36:49;;;;;;;7.97;5.78;;;;;;;-2.40;83.83;98638.09;5046668;28;20063;-59
2022/01/20 02:39:44;;;;;;;9.10;5.68;;;;;;;-2.40;82.75;98646.53;5058114;28;20041;-59
2022/01/20 02:45:03;;;;;;;8.10;5.90;;;;;;;-2.49;84.23;98641.34;5042226;28;20333;-59
2022/01/20 02:47:33;;;;;;;11.60;5.57;;;;;;;-2.48;84.04;98632.88;5058849;28;20033;-59
2022/01/20 02:49:59;;;;;;;8.40;5.70;;;;;;;-2.42;84.33;98643.13;5053138;28;20071;-59
2022/01/20 02:52:25;;;;;;;8.82;5.70;;;;;;;-2.42;83.85;98648.19;5045069;28;20038;-59
2022/01/20 02:54:54;;;;;;;7.65;5.55;;;;;;;-2.35;83.55;98649.13;5043945;28;20029;-59
2022/01/20 02:57:19;;;;;;;7.68;5.88;;;;;;;-2.35;83.81;98642.38;5049221;28;20033;-59
2022/01/20 02:59:45;;;;;;;10.50;5.72;;;;;;;-2.55;83.95;98633.63;5046616;28;20222;-58
2022/01/20 03:02:11;;;;;;;9.50;5.78;;;;;;;-2.64;85.29;98640.31;5044851;28;20173;-58
2022/01/20 03:04:37;;;;;;;8.15;5.82;;;;;;;-2.60;84.16;98628.50;5045229;28;20024;-59
2022/01/20 03:07:04;;;;;;;7.53;5.75;;;;;;;-2.46;84.85;98631.25;5048591;28;20071;-59
2022/01/20 03:09:30;;;;;;;9.90;5.80;;;;;;;-2.45;84.77;98625.34;5044699;28;20315;-59
2022/01/20 03:11:56;;;;;;;9.40;5.53;;;;;;;-2.50;84.59;98624.44;5043358;28;20032;-59
2022/01/20 03:14:22;;;;;;;6.40;4.90;;;;;;;-2.64;85.31;98621.69;5044387;28;20289;-58
2022/01/20 03:16:48;;;;;;;8.68;5.85;;;;;;;-2.51;84.94;98627.78;5044733;28;20049;-59
2022/01/20 03:19:14;;;;;;;10.90;6.43;;;;;;;-2.46;84.80;98619.41;5055789;28;20036;-59
2022/01/20 03:21:41;;;;;;;10.88;5.85;;;;;;;-2.52;84.46;98628.59;5043849;28;20040;-59
2022/01/20 03:24:08;;;;;;;10.90;6.40;;;;;;;-2.47;85.19;98625.31;5044141;28;20029;-59
2022/01/20 03:26:34;;;;;;;7.40;6.00;;;;;;;-2.43;84.86;98639.72;5051587;28;20033;-59
2022/01/20 03:29:00;;;;;;;10.00;6.40;;;;;;;-2.48;84.97;98617.69;5053318;28;20033;-58
2022/01/20 03:31:26;;;;;;;9.30;6.63;;;;;;;-2.42;84.73;98630.47;5044854;28;20036;-59
2022/01/20 03:33:52;;;;;;;10.75;6.50;;;;;;;-2.45;84.62;98622.81;5044549;28;20075;-59
2022/01/20 03:36:18;;;;;;;9.75;5.90;;;;;;;-2.33;84.78;98622.13;5048325;28;20025;-59
2022/01/20 03:38:44;;;;;;;10.73;6.05;;;;;;;-2.48;85.15;98610.06;5049793;28;20029;-60
2022/01/20 03:41:10;;;;;;;10.40;6.20;;;;;;;-2.32;85.02;98593.41;5043936;28;20087;-59
2022/01/20 03:43:36;;;;;;;8.88;6.18;;;;;;;-2.22;83.91;98605.34;5054798;28;20041;-59
2022/01/20 03:46:05;;;;;;;10.80;6.18;;;;;;;-2.29;84.90;98594.28;5048954;28;20026;-59
2022/01/20 03:48:37;;;;;;;8.93;6.20;;;;;;;-2.28;84.75;98592.59;5043058;28;20029;-59
2022/01/20 03:51:03;;;;;;;9.35;6.40;;;;;;;-2.29;84.46;98596.81;5043968;28;20360;-60
2022/01/20 03:53:32;;;;;;;10.52;6.85;;;;;;;-2.57;84.49;98533.94;5048407;28;20028;-59
2022/01/20 03:55:58;;;;;;;9.95;5.85;;;;;;;-2.38;84.87;98594.19;5042817;28;20101;-59
2022/01/20 03:58:24;;;;;;;12.32;6.60;;;;;;;-2.41;84.83;98589.03;5043336;28;20029;-60
2022/01/20 04:00:49;;;;;;;11.65;6.65;;;;;;;-2.35;84.96;98593.34;5043637;28;20285;-58
2022/01/20 04:03:16;;;;;;;11.13;6.78;;;;;;;-2.29;85.21;98583.31;5046496;28;20032;-59
2022/01/20 04:05:56;;;;;;;11.35;6.40;;;;;;;-2.27;84.92;98587.56;5058845;28;20032;-59
2022/01/20 04:08:37;;;;;;;12.82;7.30;;;;;;;-2.51;85.75;98567.81;5053009;28;20033;-59
2022/01/20 04:11:06;;;;;;;10.57;6.72;;;;;;;-2.45;85.93;98600.00;5046104;28;20033;-60
2022/01/20 04:13:32;;;;;;;11.52;6.70;;;;;;;-2.32;85.75;98585.81;5049720;28;20037;-59
2022/01/20 04:16:12;;;;;;;12.27;7.03;;;;;;;-2.49;85.85;98604.16;5051311;28;20033;-59
2022/01/20 04:18:55;;;;;;;12.13;6.80;;;;;;;-2.43;85.80;98578.06;5041930;28;20044;-58
2022/01/20 04:21:22;;;;;;;11.32;6.88;;;;;;;-2.23;84.91;98578.28;5042389;28;20038;-59
2022/01/20 04:23:48;;;;;;;12.00;6.72;;;;;;;-2.32;85.54;98568.91;5044891;28;20102;-59
2022/01/20 04:26:13;;;;;;;11.07;6.45;;;;;;;-2.29;85.44;98557.94;5042275;28;20029;-59
2022/01/20 04:28:39;;;;;;;10.73;6.22;;;;;;;-2.29;84.98;98568.94;5050268;28;20332;-59
2022/01/20 04:31:04;;;;;;;9.73;6.05;;;;;;;-2.48;86.07;98551.78;5054621;28;20039;-59
2022/01/20 04:33:30;;;;;;;10.05;6.22;;;;;;;-2.29;86.06;98556.25;5046610;28;20029;-59
2022/01/20 04:35:55;;;;;;;10.30;6.45;;;;;;;-2.40;85.72;98559.50;5043116;28;20071;-60
2022/01/20 04:38:21;;;;;;;13.77;6.50;;;;;;;-2.49;85.53;98552.63;5042094;28;20025;-59
2022/01/20 04:40:47;;;;;;;13.68;6.50;;;;;;;-2.38;86.04;98548.56;5051409;28;20053;-59
2022/01/20 04:43:13;;;;;;;10.50;6.43;;;;;;;-2.41;85.16;98548.50;5045397;28;20025;-59
2022/01/20 04:45:49;;;;;;;9.95;6.72;;;;;;;-2.22;85.03;98544.50;5055753;28;20226;-59
2022/01/20 04:59:12;;;;;;;9.80;6.43;;;;;;;-2.35;85.78;98552.78;5030331;28;20046;-59
2022/01/20 05:01:44;;;;;;;11.82;6.78;;;;;;;-2.41;84.80;98548.50;5052494;28;20037;-58
2022/01/20 05:04:09;;;;;;;;;;;;;;;-2.41;85.06;98553.56;5046382;28;20107;-58
2022/01/20 05:06:38;;;;;;;13.80;7.10;;;;;;;-2.39;85.73;98554.44;5043578;28;20130;-58
2022/01/20 05:09:04;;;;;;;12.57;7.07;;;;;;;-2.45;85.60;98551.84;5049095;28;20055;-58
2022/01/20 05:11:29;;;;;;;15.77;6.28;;;;;;;-2.42;85.44;98556.94;5052329;28;20057;-57
2022/01/20 05:13:57;;;;;;;10.77;6.82;;;;;;;-2.46;85.69;98560.28;5044967;28;20074;-57
2022/01/20 05:16:24;;;;;;;11.73;6.55;;;;;;;-2.40;85.46;98545.13;5028226;28;20310;-57
2022/01/20 05:18:50;;;;;;;12.32;6.72;;;;;;;-2.40;84.99;98540.06;5052760;28;20095;-56
2022/01/20 05:21:15;;;;;;;10.80;6.28;;;;;;;-2.30;85.49;98546.94;5047865;28;20037;-57
2022/01/20 05:23:41;;;;;;;10.93;6.25;;;;;;;-2.39;85.19;98549.38;5042950;28;20037;-57
2022/01/20 05:26:06;;;;;;;10.07;6.10;;;;;;;-2.37;84.04;98547.69;5043026;28;20071;-57
2022/01/20 05:28:32;;;;;;;8.90;5.55;;;;;;;-2.36;84.58;98538.44;5048186;28;20040;-57
2022/01/20 05:30:59;;;;;;;9.95;6.22;;;;;;;-2.35;84.34;98535.03;5042535;28;20097;-59
2022/01/20 05:33:26;;;;;;;9.70;6.13;;;;;;;-2.35;84.81;98533.38;5042959;28;20060;-58
2022/01/20 05:35:51;;;;;;;10.90;6.47;;;;;;;-2.50;84.68;98523.88;5047212;28;20028;-57
2022/01/20 05:38:17;;;;;;;10.30;6.25;;;;;;;-2.47;84.99;98521.38;5039773;28;20042;-58
2022/01/20 05:40:43;;;;;;;12.02;6.07;;;;;;;-2.31;85.00;98524.97;5028618;28;20052;-58
2022/01/20 05:43:08;;;;;;;9.98;6.18;;;;;;;-2.22;84.32;98525.88;5053057;28;20236;-57
2022/01/20 05:45:35;;;;;;;11.30;6.50;;;;;;;-2.26;84.22;98510.63;5050083;28;20037;-58
2022/01/20 05:48:10;;;;;;;12.68;6.20;;;;;;;-2.43;84.49;98504.53;5044246;28;20037;-57
2022/01/20 05:50:37;;;;;;;10.35;6.72;;;;;;;-2.18;84.21;98525.09;5055414;28;20033;-57
2022/01/20 05:53:04;;;;;;;10.82;6.93;;;;;;;-2.13;84.84;98524.28;5051832;28;20036;-56
2022/01/20 05:55:31;;;;;;;10.40;6.55;;;;;;;-2.26;85.01;98533.47;5052910;28;20033;-57
2022/01/20 05:57:56;;;;;;;13.70;6.97;;;;;;;-2.30;85.08;98519.03;5047806;28;20037;-57
2022/01/20 06:00:23;;;;;;;11.07;6.90;;;;;;;-2.32;85.53;98528.31;5049874;28;20035;-56
2022/01/20 06:05:33;;;;;;;11.82;6.80;;;;;;;-2.13;84.73;98506.53;5058567;28;20254;-57
2022/01/20 06:07:59;;;;;;;12.57;6.85;;;;;;;-2.20;85.10;98502.25;5052516;28;20037;-57
2022/01/20 06:10:25;;;;;;;10.10;6.47;;;;;;;-2.15;84.59;98509.88;5046805;28;20273;-55
2022/01/20 06:12:50;;;;;;;12.43;7.03;;;;;;;-2.16;84.46;98503.97;5058975;28;20101;-57
2022/01/20 06:15:16;;;;;;;10.98;7.22;;;;;;;-2.26;84.73;98492.88;5042583;28;20041;-58
2022/01/20 06:17:42;;;;;;;12.65;6.93;;;;;;;-2.15;84.28;98487.06;5048810;28;20033;-57
2022/01/20 06:20:09;;;;;;;12.93;7.43;;;;;;;-1.98;84.57;98497.38;5058924;28;20329;-58
2022/01/20 06:22:36;;;;;;;11.80;7.25;;;;;;;-2.21;84.10;98489.56;5054270;28;20342;-57
2022/01/20 06:25:02;;;;;;;10.80;6.80;;;;;;;-2.44;85.72;98492.69;5047025;28;20044;-58
2022/01/20 06:27:29;;;;;;;12.02;7.35;;;;;;;-2.27;84.84;98480.19;5052476;28;20096;-57
2022/01/20 06:29:55;;;;;;;14.55;7.15;;;;;;;-2.12;84.34;98487.13;5056760;28;20074;-57
2022/01/20 06:32:20;;;;;;;11.95;7.10;;;;;;;-1.98;84.47;98482.16;5050432;28;20025;-57
2022/01/20 06:34:46;;;;;;;12.07;7.15;;;;;;;-1.95;84.21;98477.97;5045094;28;21303;-57
2022/01/20 06:37:12;;;;;;;11.40;7.07;;;;;;;-2.02;84.48;98496.53;5045221;28;20162;-57
2022/01/20 06:39:37;;;;;;;12.50;7.00;;;;;;;-2.01;84.12;98490.63;5044170;28;20033;-58
2022/01/20 06:42:04;;;;;;;14.60;7.80;;;;;;;-2.01;84.29;98483.00;5044228;28;20033;-57
2022/01/20 06:44:29;;;;;;;11.93;7.15;;;;;;;-1.92;83.79;98490.69;5057775;28;20044;-57
2022/01/20 06:46:55;;;;;;;12.43;7.13;;;;;;;-1.97;83.78;98489.78;5047974;28;20029;-57
2022/01/20 06:49:20;;;;;;;12.02;7.20;;;;;;;-1.92;83.51;98498.31;5033394;28;20033;-57
2022/01/20 06:51:46;;;;;;;12.88;8.40;;;;;;;-2.05;84.78;98486.34;5041677;28;20093;-57
2022/01/20 06:54:12;;;;;;;14.52;7.90;;;;;;;-1.89;84.79;98487.34;5049223;28;20040;-57
2022/01/20 06:56:38;;;;;;;11.95;6.68;;;;;;;-1.86;84.37;98487.34;5045230;28;20318;-56
2022/01/20 06:59:04;;;;;;;14.20;8.40;;;;;;;-1.77;83.39;98487.44;5045334;28;20045;-57
2022/01/20 07:01:30;;;;;;;11.38;7.38;;;;;;;-1.90;83.71;98490.69;5054914;28;20036;-57
2022/01/20 07:03:55;;;;;;;13.80;8.25;;;;;;;-1.89;84.29;98499.19;5051408;28;20025;-57
2022/01/20 07:06:21;;;;;;;12.10;8.13;;;;;;;-1.92;83.62;98498.31;5029585;28;20049;-57
2022/01/20 07:08:47;;;;;;;14.15;8.50;;;;;;;-1.91;84.06;98497.47;5044437;28;20025;-57
2022/01/20 07:11:13;;;;;;;14.57;8.77;;;;;;;-1.92;84.67;98500.84;5050416;28;20025;-57
2022/01/20 07:13:38;;;;;;;14.32;8.95;;;;;;;-1.86;84.37;98505.13;5043744;28;20060;-57
2022/01/20 07:16:04;;;;;;;19.48;8.27;;;;;;;-1.95;83.94;98502.50;5039439;28;20045;-57
2022/01/20 07:18:31;;;;;;;13.45;7.95;;;;;;;-1.94;84.24;98502.53;5049141;28;20032;-58
2022/01/20 07:20:56;;;;;;;19.20;9.38;;;;;;;-1.93;84.36;98493.22;5044431;28;20049;-56
2022/01/20 07:23:22;;;;;;;14.98;8.43;;;;;;;-1.99;84.47;98491.47;5044691;28;20223;-56
2022/01/20 07:25:47;;;;;;;15.32;8.40;;;;;;;-2.03;83.82;98469.44;5053325;28;20199;-56
2022/01/20 07:28:13;;;;;;;17.63;8.98;;;;;;;-2.02;84.51;98478.75;5047979;28;20045;-56
2022/01/20 07:30:39;;;;;;;17.35;9.35;;;;;;;-2.02;85.51;98481.31;5043406;28;20025;-57
2022/01/20 07:33:05;;;;;;;14.32;9.30;;;;;;;-2.00;84.92;98466.94;5054253;28;20095;-57
2022/01/20 07:35:31;;;;;;;19.10;10.00;;;;;;;-1.84;84.32;98465.41;5048878;28;20026;-57
2022/01/20 07:37:57;;;;;;;17.40;9.68;;;;;;;-1.91;84.23;98468.69;5042961;28;20183;-57
2022/01/20 07:40:22;;;;;;;15.57;9.15;;;;;;;-2.07;84.59;98452.50;5051252;28;20041;-57
2022/01/20 07:42:48;;;;;;;15.02;9.65;;;;;;;-1.94;84.20;98472.06;5051051;28;20035;-57
2022/01/20 07:45:14;;;;;;;20.08;9.45;;;;;;;-1.86;84.62;98476.38;5048627;28;20059;-57
2022/01/20 07:47:39;;;;;;;16.35;8.75;;;;;;;-2.11;84.45;98461.78;5055413;28;20071;-58
2022/01/20 07:50:05;;;;;;;18.95;10.13;;;;;;;-2.13;85.45;98476.13;5043002;28;20029;-59
2022/01/20 07:52:31;;;;;;;18.02;9.27;;;;;;;-2.08;85.04;98466.03;5047180;28;20029;-56
2022/01/20 07:54:57;;;;;;;20.92;9.13;;;;;;;-2.11;85.04;98471.91;5043193;28;20036;-56
2022/01/20 07:57:22;;;;;;;16.88;9.75;;;;;;;-2.15;85.50;98471.84;5048399;28;20334;-57
2022/01/20 07:59:48;;;;;;;20.75;10.13;;;;;;;-2.21;85.30;98464.19;5039900;28;20344;-57
2022/01/20 08:02:16;;;;;;;15.43;10.13;;;;;;;-2.15;85.70;98464.25;5052938;28;20032;-57
2022/01/20 08:04:41;;;;;;;17.52;10.00;;;;;;;-2.06;85.47;98483.81;5045518;28;20037;-56
2022/01/20 08:07:07;;;;;;;17.00;9.38;;;;;;;-1.97;85.24;98477.09;5042160;28;20234;-57
2022/01/20 08:09:33;;;;;;;17.55;9.43;;;;;;;-2.00;85.42;98478.78;5042115;28;20037;-57
2022/01/20 08:11:58;;;;;;;15.18;9.27;;;;;;;-1.97;84.86;98482.19;5042452;28;20041;-57
2022/01/20 08:14:25;;;;;;;16.55;9.35;;;;;;;-2.02;84.42;98476.22;5033176;28;20025;-56
2022/01/20 08:16:51;;;;;;;20.65;10.38;;;;;;;-1.93;84.55;98483.91;5032805;28;20036;-56
2022/01/20 08:19:16;;;;;;;17.35;9.00;;;;;;;-2.16;84.87;98485.38;5043534;28;20041;-57
2022/01/20 08:21:42;;;;;;;18.50;9.00;;;;;;;-2.11;85.20;98476.13;5043003;28;20041;-56
2022/01/20 08:24:07;;;;;;;18.20;9.13;;;;;;;-2.14;85.52;98476.09;5042810;28;20421;-56
2022/01/20 08:26:33;;;;;;;16.25;9.70;;;;;;;-2.17;85.62;98465.94;5042531;28;20226;-58
2022/01/20 08:28:59;;;;;;;19.02;9.73;;;;;;;-2.37;84.91;98430.25;5041291;28;20045;-57
2022/01/20 08:31:24;;;;;;;17.75;10.25;;;;;;;-2.02;85.68;98457.59;5042273;28;20037;-58
2022/01/20 08:33:50;;;;;;;15.82;9.10;;;;;;;-1.96;84.98;98453.44;5039562;28;20067;-57
2022/01/20 08:36:16;;;;;;;16.33;9.25;;;;;;;-1.94;84.70;98448.38;5042287;28;20021;-57
2022/01/20 08:38:41;;;;;;;17.95;9.63;;;;;;;-1.96;84.70;98455.13;5042869;28;20021;-57
2022/01/20 08:41:07;;;;;;;17.63;10.18;;;;;;;-2.14;85.01;98436.41;5041612;28;20033;-57
2022/01/20 08:43:38;;;;;;;18.67;9.93;;;;;;;-1.93;84.84;98445.84;5041051;28;20041;-57
2022/01/20 08:46:07;;;;;;;15.13;9.10;;;;;;;-1.98;84.66;98433.97;5040873;28;20051;-56
2022/01/20 08:48:37;;;;;;;20.00;10.00;;;;;;;-1.98;84.65;98429.75;5041948;28;20065;-57
2022/01/20 08:51:04;;;;;;;21.27;9.50;;;;;;;-1.93;85.42;98434.88;5044311;28;20104;-57
2022/01/20 08:53:31;;;;;;;16.20;9.43;;;;;;;-2.10;84.70;98427.13;5041564;28;20041;-56
2022/01/20 08:55:59;;;;;;;16.33;9.57;;;;;;;-2.14;85.40;98410.16;5043404;28;20129;-57
2022/01/20 08:58:25;;;;;;;15.38;10.05;;;;;;;-1.97;85.98;98423.81;5042734;28;20063;-56
2022/01/20 09:00:50;;;;;;;15.93;9.52;;;;;;;-2.06;85.34;98403.47;5042807;28;20409;-57
2022/01/20 09:03:16;;;;;;;13.85;8.63;;;;;;;-1.93;85.17;98412.88;5041868;28;20033;-58
2022/01/20 09:05:42;;;;;;;19.40;9.80;;;;;;;-1.90;84.61;98409.53;5041956;28;20025;-58
2022/01/20 09:08:09;;;;;;;12.68;8.38;;;;;;;-2.03;85.25;98400.97;5053851;28;20029;-58
2022/01/20 09:10:39;;;;;;;16.13;8.73;;;;;;;-2.18;85.50;98393.22;5048684;28;20076;-57
2022/01/20 09:15:50;;;;;;;16.52;9.57;;;;;;;-2.09;84.73;98386.53;5041112;28;20033;-58
2022/01/20 09:18:18;;;;;;;15.15;9.57;;;;;;;-2.07;84.93;98386.56;5047126;28;20037;-58
2022/01/20 09:20:44;;;;;;;15.98;9.85;;;;;;;-1.97;84.77;98395.94;5034482;28;20057;-58
2022/01/20 09:23:10;;;;;;;19.02;10.70;;;;;;;-1.79;84.97;98389.31;5041800;28;20060;-59
2022/01/20 09:25:36;;;;;;;18.42;10.38;;;;;;;-1.93;84.89;98389.19;5051413;28;20040;-59
2022/01/20 09:28:02;;;;;;;18.83;10.75;;;;;;;-1.97;85.60;98383.25;5045611;28;20049;-59
2022/01/20 09:30:29;;;;;;;21.63;10.73;;;;;;;-2.17;86.09;98384.78;5045342;28;20051;-57
2022/01/20 09:33:24;;;;;;;17.05;10.50;;;;;;;-2.42;85.91;98349.09;5046649;28;20124;-58
2022/01/20 09:35:45;;;;;;;17.17;9.63;;;;;;;-2.29;86.01;98376.25;5047201;28;20230;-58
2022/01/20 09:38:12;;;;;;;16.92;9.07;;;;;;;-2.38;86.65;98376.16;5046867;28;20028;-58
2022/01/20 09:40:39;;;;;;;18.25;9.82;;;;;;;-2.32;87.36;98380.44;5033984;28;20041;-58
2022/01/20 09:43:06;;;;;;;16.67;9.48;;;;;;;-2.21;86.27;98378.00;5050802;28;20229;-57
2022/01/20 09:45:32;;;;;;;23.05;10.85;;;;;;;-2.32;86.63;98376.22;5061713;28;20037;-57
2022/01/20 09:48:01;;;;;;;18.63;10.35;;;;;;;-2.43;87.98;98370.19;5054714;28;20045;-57
2022/01/20 09:50:27;;;;;;;18.05;10.52;;;;;;;-2.10;86.74;98371.31;5050084;28;20215;-58
2022/01/20 09:52:57;;;;;;;17.40;10.35;;;;;;;-1.97;86.14;98365.50;5055239;28;20032;-58
2022/01/20 09:55:22;;;;;;;15.32;9.23;;;;;;;-2.29;86.78;98363.56;5046580;28;20041;-59
2022/01/20 09:57:48;;;;;;;18.38;9.55;;;;;;;-2.17;86.41;98349.28;5049368;28;20036;-58
2022/01/20 10:00:16;;;;;;;13.90;9.07;;;;;;;-2.10;85.55;98346.78;5047134;28;20088;-57
2022/01/20 10:03:12;;;;;;;14.98;9.45;;;;;;;-2.27;85.75;98341.63;5056897;28;20048;-60
2022/01/20 10:06:07;;;;;;;19.65;10.25;;;;;;;-2.10;86.14;98335.81;5037233;28;20096;-59
2022/01/20 10:08:36;;;;;;;18.50;10.13;;;;;;;-2.05;86.02;98338.38;5043184;28;20041;-57
2022/01/20 10:11:09;;;;;;;16.42;9.73;;;;;;;-2.52;86.48;98289.88;5054354;28;20128;-58
2022/01/20 10:13:40;;;;;;;16.58;9.07;;;;;;;-2.59;86.02;98272.91;5044360;28;20022;-57
2022/01/20 10:16:15;;;;;;;13.37;8.90;;;;;;;-2.16;86.16;98343.38;5032751;28;20033;-58
2022/01/20 10:18:53;;;;;;;16.92;8.55;;;;;;;-2.36;86.06;98288.28;5056663;28;20032;-58
2022/01/20 10:21:28;;;;;;;15.18;9.10;;;;;;;-2.11;84.95;98324.81;5046172;28;20076;-59
2022/01/20 10:23:53;;;;;;;16.42;9.50;;;;;;;-2.05;84.96;98341.78;5043376;28;20025;-59
2022/01/20 10:26:22;;;;;;;14.73;8.75;;;;;;;-2.50;86.38;98279.75;5044852;28;20245;-59
2022/01/20 10:29:17;;;;;;;16.63;8.07;;;;;;;-2.15;86.06;98334.91;5052901;28;20329;-58
2022/01/20 10:31:46;;;;;;;18.50;9.80;;;;;;;-2.05;85.52;98338.38;5032003;28;20334;-59
2022/01/20 10:34:30;;;;;;;11.93;8.20;;;;;;;-2.01;85.56;98332.50;5052266;28;20050;-59
2022/01/20 10:37:04;;;;;;;10.38;6.88;;;;;;;-2.20;85.63;98331.53;5043065;28;20097;-58
2022/01/20 10:39:42;;;;;;;14.30;8.88;;;;;;;-2.61;85.69;98257.69;5046720;28;20041;-59
2022/01/20 10:42:11;;;;;;;13.75;8.55;;;;;;;-2.17;85.86;98307.00;5044551;28;20037;-58
2022/01/20 10:44:53;;;;;;;14.73;8.63;;;;;;;-2.04;84.94;98329.94;5052163;28;20301;-59
2022/01/20 10:47:21;;;;;;;12.57;8.15;;;;;;;-1.92;85.15;98315.66;5046371;28;20338;-58
2022/01/20 10:49:49;;;;;;;15.55;8.55;;;;;;;-2.36;84.56;98265.47;5045379;28;20049;-58
2022/01/20 10:52:18;;;;;;;14.55;8.93;;;;;;;-2.45;85.27;98273.88;5046467;28;20056;-58
2022/01/20 10:54:45;;;;;;;12.35;7.97;;;;;;;-2.04;86.11;98345.16;5045797;28;20030;-57
2022/01/20 10:57:15;;;;;;;13.40;8.27;;;;;;;-2.09;84.74;98332.44;5050078;28;20218;-58
2022/01/20 10:59:55;;;;;;;13.48;7.55;;;;;;;-2.42;85.24;98298.41;5053983;28;20029;-58
2022/01/20 11:02:25;;;;;;;13.60;8.20;;;;;;;-2.55;85.78;98271.25;5045386;28;20077;-58
2022/01/20 11:04:51;;;;;;;13.02;7.97;;;;;;;-1.96;85.95;98316.47;5046113;28;20033;-59
2022/01/20 11:07:17;;;;;;;15.93;8.68;;;;;;;-1.96;84.88;98324.06;5053818;28;20040;-58
2022/01/20 11:09:44;;;;;;;12.32;7.90;;;;;;;-1.87;84.81;98312.28;5050588;28;20025;-58
2022/01/20 11:12:13;;;;;;;12.55;8.35;;;;;;;-2.12;85.12;98261.44;5044015;28;20065;-59
2022/01/20 11:14:39;;;;;;;11.43;7.70;;;;;;;-1.72;84.14;98309.84;5053893;28;20195;-58
2022/01/20 11:17:05;;;;;;;13.32;7.90;;;;;;;-1.71;84.18;98313.22;5044836;28;20049;-58
2022/01/20 11:19:36;;;;;;;12.27;7.95;;;;;;;-1.64;84.73;98308.19;5032817;28;20064;-58
2022/01/20 11:22:11;;;;;;;10.95;7.43;;;;;;;-1.62;84.76;98298.06;5049114;28;20033;-58
2022/01/20 11:24:38;;;;;;;13.82;7.95;;;;;;;-1.71;83.75;98290.38;5041722;28;20036;-58
2022/01/20 11:27:05;;;;;;;13.30;8.27;;;;;;;-1.64;84.19;98300.59;5050638;28;20039;-57
2022/01/20 11:29:39;;;;;;;12.55;8.57;;;;;;;-1.85;84.94;98330.91;5049008;28;20067;-58
2022/01/20 11:32:26;;;;;;;14.60;8.52;;;;;;;-1.79;85.60;98287.81;5044544;28;20037;-59
2022/01/20 11:35:07;;;;;;;12.10;7.90;;;;;;;-2.10;84.60;98235.22;5044736;28;20108;-57
2022/01/20 11:37:36;;;;;;;12.70;8.30;;;;;;;-1.66;84.49;98292.09;5044659;28;20214;-58
2022/01/20 11:40:11;;;;;;;13.48;8.25;;;;;;;-1.69;83.74;98297.16;5043421;28;20322;-59
2022/01/20 11:42:37;;;;;;;13.70;8.65;;;;;;;-1.96;85.55;98293.63;5044904;28;20033;-57
2022/01/20 11:45:22;;;;;;;13.70;8.32;;;;;;;-1.82;86.26;98295.41;5052628;28;20238;-58
2022/01/20 11:47:47;;;;;;;14.85;8.40;;;;;;;-1.68;84.85;98303.06;5042031;28;20092;-58
2022/01/20 11:50:20;;;;;;;14.65;9.27;;;;;;;-1.64;84.30;98308.19;5028407;28;20044;-58
2022/01/20 11:52:45;;;;;;;14.73;9.20;;;;;;;-1.53;84.43;98294.72;5050520;28;20033;-58
2022/01/20 11:55:13;;;;;;;13.65;9.77;;;;;;;-1.71;85.02;98278.56;5048536;28;20333;-58
2022/01/20 11:57:39;;;;;;;15.57;10.07;;;;;;;-1.56;84.10;98295.53;5043787;28;20051;-58
2022/01/20 12:00:24;;;;;;;15.25;10.25;;;;;;;-1.37;84.90;98319.31;5040281;28;20349;-59
2022/01/20 12:02:50;;;;;;;16.17;9.82;;;;;;;-1.58;84.37;98292.16;5043714;28;20040;-58
2022/01/20 12:05:17;;;;;;;14.57;10.07;;;;;;;-1.52;84.54;98299.78;5053667;28;20033;-57
2022/01/20 12:07:43;;;;;;;13.77;9.30;;;;;;;-1.79;85.05;98297.97;5047933;28;20033;-58
2022/01/20 12:10:10;;;;;;;17.80;10.45;;;;;;;-1.97;85.40;98256.41;5047273;28;20044;-59
2022/01/20 12:12:38;;;;;;;13.25;9.70;;;;;;;-1.62;84.75;98288.75;5047125;28;20036;-59
2022/01/20 12:15:16;;;;;;;14.23;8.82;;;;;;;-1.92;84.34;98237.00;5054458;28;20040;-59
2022/01/20 12:17:50;;;;;;;14.32;9.52;;;;;;;-1.80;85.46;98288.66;5043457;28;20037;-58
2022/01/20 12:20:16;;;;;;;20.10;10.38;;;;;;;-1.74;86.08;98303.91;5042776;28;20295;-58
2022/01/20 12:22:43;;;;;;;14.18;9.88;;;;;;;-1.68;84.92;98277.69;5042327;28;20060;-58
2022/01/20 12:25:17;;;;;;;15.38;9.80;;;;;;;-1.80;84.56;98274.25;5043953;28;20040;-58
2022/01/20 12:27:43;;;;;;;14.45;10.23;;;;;;;-1.53;85.29;98299.78;5043425;28;20029;-59
2022/01/20 12:30:19;;;;;;;15.48;10.52;;;;;;;-1.92;84.89;98274.22;5042423;28;20032;-58
2022/01/20 12:33:07;;;;;;;14.30;10.07;;;;;;;-1.94;84.86;98250.50;5050592;28;20047;-58